Time;durP1;ratioP1;P1;durP2;ratioP2;P2;SDS_P1;SDS_P2;PMS_P1;PMS_P2;Temp;Humidity;BMP_temperature;BMP_pressure;BME280_temperature;BME280_humidity;BME280_pressure;Samples;Min_cycle;Max_cycle;Signal;HPM_P1;HPM_P2
2022/07/14 00:01:48;;;;;;;9.15;4.85;;;19.00;99.90;;;;;;5049924;28;20096;-68
2022/07/14 00:04:13;;;;;;;11.10;4.55;;;19.10;99.90;;;;;;5047764;28;20124;-65
2022/07/14 00:06:39;;;;;;;12.10;4.95;;;19.00;99.90;;;;;;5035675;28;20499;-66
2022/07/14 00:09:04;;;;;;;21.45;5.30;;;19.10;99.90;;;;;;5036695;28;20044;-66
2022/07/14 00:11:30;;;;;;;7.72;4.90;;;19.00;99.90;;;;;;5024912;28;20043;-66
2022/07/14 00:13:58;;;;;;;11.02;4.78;;;19.00;99.90;;;;;;5037752;28;20491;-66
2022/07/14 00:16:24;;;;;;;13.45;4.97;;;18.80;99.90;;;;;;5049554;28;20029;-66
2022/07/14 00:18:49;;;;;;;15.40;4.70;;;19.50;99.90;;;;;;5050791;28;20029;-66
2022/07/14 00:21:15;;;;;;;9.43;4.97;;;18.70;99.90;;;;;;5052844;28;20063;-66
2022/07/14 00:23:41;;;;;;;11.50;4.55;;;18.70;99.90;;;;;;5048338;28;20052;-66
2022/07/14 00:26:07;;;;;;;10.07;4.53;;;18.70;99.90;;;;;;5039179;28;20088;-66
2022/07/14 00:28:33;;;;;;;10.50;4.45;;;18.70;99.90;;;;;;5032743;28;20135;-66
2022/07/14 00:31:03;;;;;;;16.17;4.28;;;18.50;99.90;;;;;;5039397;28;20036;-66
2022/07/14 00:33:32;;;;;;;7.45;4.32;;;18.60;99.90;;;;;;5045996;28;20033;-66
2022/07/14 00:35:57;;;;;;;11.10;4.13;;;19.50;99.90;;;;;;5036345;28;20125;-66
2022/07/14 00:38:23;;;;;;;10.10;3.83;;;18.50;99.90;;;;;;5033368;28;20100;-66
2022/07/14 00:40:48;;;;;;;12.55;5.15;;;18.60;99.90;;;;;;5048150;28;20849;-66
2022/07/14 00:43:14;;;;;;;12.15;4.30;;;18.50;99.90;;;;;;5035714;28;20029;-66
2022/07/14 00:45:39;;;;;;;18.77;4.10;;;18.40;99.90;;;;;;5031778;28;20049;-65
2022/07/14 00:48:06;;;;;;;13.98;4.13;;;18.40;99.90;;;;;;5032351;28;20057;-66
2022/07/14 00:50:32;;;;;;;14.48;4.70;;;18.40;99.90;;;;;;5049269;28;20175;-66
2022/07/14 00:52:57;;;;;;;13.55;4.35;;;18.50;99.90;;;;;;5051886;28;20646;-65
2022/07/14 00:55:23;;;;;;;10.23;4.47;;;18.50;99.90;;;;;;5050439;28;20150;-66
2022/07/14 00:57:50;;;;;;;15.10;5.68;;;18.50;99.90;;;;;;5047038;28;20123;-66
2022/07/14 01:00:17;;;;;;;17.67;5.65;;;18.30;99.90;;;;;;5047341;28;20032;-66
2022/07/14 01:02:43;;;;;;;11.88;4.28;;;18.30;99.90;;;;;;5033414;28;20076;-66
2022/07/14 01:05:09;;;;;;;12.05;4.72;;;18.20;99.90;;;;;;5024838;28;20037;-69
2022/07/14 01:07:34;;;;;;;10.02;3.88;;;19.30;99.90;;;;;;5036840;28;20025;-68
2022/07/14 01:10:00;;;;;;;12.95;3.90;;;18.20;99.90;;;;;;5034972;28;20055;-69
2022/07/14 01:12:26;;;;;;;11.25;4.72;;;18.20;99.90;;;;;;5048173;28;20108;-69
2022/07/14 01:14:51;;;;;;;11.77;4.45;;;18.20;99.90;;;;;;5015168;28;20053;-71
2022/07/14 01:17:17;;;;;;;10.23;4.65;;;18.20;99.90;;;;;;5051245;28;20068;-69
2022/07/14 01:19:43;;;;;;;16.17;6.18;;;18.10;99.90;;;;;;5041299;28;20099;-67
2022/07/14 01:22:09;;;;;;;17.67;4.68;;;18.10;99.90;;;;;;5020638;28;20508;-70
2022/07/14 01:24:34;;;;;;;10.90;4.30;;;18.00;99.90;;;;;;5027023;28;20061;-69
2022/07/14 01:27:00;;;;;;;10.93;4.35;;;18.00;99.90;;;;;;5032485;28;20115;-68
2022/07/14 01:29:25;;;;;;;8.40;4.57;;;18.00;99.90;;;;;;5048624;28;20502;-69
2022/07/14 01:31:51;;;;;;;9.88;4.57;;;18.00;99.90;;;;;;5049523;28;20094;-69
2022/07/14 01:34:17;;;;;;;16.10;4.53;;;17.90;99.90;;;;;;5035524;28;20036;-69
2022/07/14 01:36:42;;;;;;;16.17;4.85;;;18.00;99.90;;;;;;5034193;28;20021;-69
2022/07/14 01:39:08;;;;;;;20.33;4.38;;;18.00;99.90;;;;;;5048394;28;20028;-69
2022/07/14 01:41:33;;;;;;;14.90;4.63;;;18.00;99.90;;;;;;5033745;28;20054;-69
2022/07/14 01:43:59;;;;;;;24.42;5.10;;;17.90;99.90;;;;;;5015934;28;20391;-69
2022/07/14 01:46:25;;;;;;;17.98;5.03;;;17.90;99.90;;;;;;5052435;28;20017;-69
2022/07/14 01:48:50;;;;;;;10.90;4.35;;;17.90;99.90;;;;;;5034277;28;20022;-69
2022/07/14 01:51:16;;;;;;;11.65;4.05;;;18.00;99.90;;;;;;5049168;28;20017;-67
2022/07/14 01:53:41;;;;;;;19.05;4.63;;;17.90;99.90;;;;;;5046417;28;20021;-69
2022/07/14 01:56:08;;;;;;;10.68;4.50;;;18.10;99.90;;;;;;5032386;28;20030;-67
2022/07/14 01:58:33;;;;;;;13.00;4.88;;;17.90;99.90;;;;;;5051660;28;20041;-68
2022/07/14 02:03:45;;;;;;;10.52;4.90;;;17.90;99.90;;;;;;5020831;28;20104;-69
2022/07/14 02:06:11;;;;;;;18.25;5.25;;;17.90;99.90;;;;;;5036162;28;20018;-68
2022/07/14 02:08:36;;;;;;;13.27;4.50;;;17.90;99.90;;;;;;5034277;28;20028;-68
2022/07/14 02:13:46;;;;;;;13.27;4.35;;;18.00;99.90;;;;;;5052235;28;20065;-68
2022/07/14 02:16:12;;;;;;;14.23;4.78;;;17.70;99.90;;;;;;5049652;28;20037;-71
2022/07/14 02:18:37;;;;;;;21.85;5.40;;;17.70;99.90;;;;;;5017861;28;20029;-70
2022/07/14 02:21:03;;;;;;;15.00;4.82;;;17.70;99.90;;;;;;5034319;28;20102;-66
2022/07/14 02:23:28;;;;;;;16.73;4.72;;;17.70;99.90;;;;;;5052118;28;20282;-66
2022/07/14 02:25:54;;;;;;;8.82;4.05;;;17.70;99.90;;;;;;5035993;28;20578;-66
2022/07/14 02:28:19;;;;;;;13.95;4.93;;;17.70;99.90;;;;;;5021172;28;20583;-66
2022/07/14 02:30:45;;;;;;;18.58;5.30;;;17.70;99.90;;;;;;5055536;28;20500;-66
2022/07/14 02:33:11;;;;;;;9.98;4.45;;;17.60;99.90;;;;;;5037954;28;20033;-66
2022/07/14 02:35:36;;;;;;;13.55;4.93;;;17.60;99.90;;;;;;5018684;28;20035;-66
2022/07/14 02:38:02;;;;;;;13.82;4.47;;;17.70;99.90;;;;;;5017763;28;20087;-66
2022/07/14 02:40:28;;;;;;;13.25;4.43;;;17.70;99.90;;;;;;5018090;28;20383;-66
2022/07/14 02:42:53;;;;;;;13.85;5.10;;;17.90;99.90;;;;;;5035450;28;20036;-65
2022/07/14 02:45:19;;;;;;;13.75;4.53;;;17.60;99.90;;;;;;5048984;28;20052;-66
2022/07/14 02:47:44;;;;;;;16.98;4.80;;;17.60;99.90;;;;;;5037201;28;20111;-65
2022/07/14 02:50:10;;;;;;;19.15;5.10;;;18.50;99.90;;;;;;5055255;28;20445;-66
2022/07/14 02:52:36;;;;;;;16.80;4.28;;;17.70;99.90;;;;;;5037616;28;20078;-65
2022/07/14 02:55:02;;;;;;;13.40;5.07;;;17.70;99.90;;;;;;5035776;28;20402;-65
2022/07/14 02:57:28;;;;;;;19.58;5.88;;;17.70;99.90;;;;;;5036714;28;20478;-66
2022/07/14 02:59:53;;;;;;;15.50;4.63;;;17.60;99.90;;;;;;5020711;28;20074;-66
2022/07/14 03:02:19;;;;;;;19.20;6.15;;;17.50;99.90;;;;;;5055101;28;20025;-66
2022/07/14 03:04:45;;;;;;;15.13;5.57;;;17.50;99.90;;;;;;5054992;28;20025;-66
2022/07/14 03:07:10;;;;;;;16.10;5.20;;;17.60;99.90;;;;;;5037242;28;20032;-66
2022/07/14 03:09:36;;;;;;;16.27;5.30;;;17.50;99.90;;;;;;5051161;28;20033;-66
2022/07/14 03:12:01;;;;;;;18.27;4.82;;;17.40;99.90;;;;;;5020666;28;20033;-66
2022/07/14 03:14:27;;;;;;;16.50;4.85;;;17.40;99.90;;;;;;5055057;28;20032;-66
2022/07/14 03:16:52;;;;;;;13.18;4.93;;;17.40;99.90;;;;;;5036869;28;20017;-65
2022/07/14 03:19:18;;;;;;;11.05;4.80;;;17.50;99.90;;;;;;5039029;28;20083;-66
2022/07/14 03:21:43;;;;;;;17.55;5.05;;;17.60;99.90;;;;;;5017143;28;20025;-66
2022/07/14 03:24:09;;;;;;;13.15;5.25;;;17.60;99.90;;;;;;5017028;28;20032;-66
2022/07/14 03:26:35;;;;;;;13.55;4.82;;;17.50;99.90;;;;;;5054685;28;20025;-66
2022/07/14 03:29:01;;;;;;;9.63;4.85;;;17.40;99.90;;;;;;5054370;28;20457;-66
2022/07/14 03:31:29;;;;;;;19.17;5.55;;;17.80;99.90;;;;;;5049778;28;20029;-70
2022/07/14 03:33:55;;;;;;;14.02;4.95;;;17.50;99.90;;;;;;5021606;28;20061;-70
2022/07/14 03:36:20;;;;;;;15.68;5.18;;;17.50;99.90;;;;;;5038157;28;20048;-68
2022/07/14 03:38:46;;;;;;;18.33;5.35;;;17.50;99.90;;;;;;5053056;28;20105;-67
2022/07/14 03:41:12;;;;;;;19.42;5.07;;;17.50;99.90;;;;;;5054027;28;20447;-67
2022/07/14 03:43:37;;;;;;;18.75;5.47;;;17.30;99.90;;;;;;5052637;28;20029;-67
2022/07/14 03:46:03;;;;;;;16.17;5.45;;;17.30;99.90;;;;;;5018825;28;20087;-67
2022/07/14 03:48:28;;;;;;;12.75;5.07;;;17.30;99.90;;;;;;5034584;28;20067;-67
2022/07/14 03:50:54;;;;;;;21.58;5.22;;;17.30;99.90;;;;;;5040583;28;20017;-67
2022/07/14 03:53:20;;;;;;;15.52;5.03;;;17.20;99.90;;;;;;5044334;28;20037;-67
2022/07/14 03:55:48;;;;;;;17.45;5.38;;;17.20;99.90;;;;;;5034069;28;20033;-67
2022/07/14 03:58:14;;;;;;;21.27;5.68;;;17.20;99.90;;;;;;5035176;28;20061;-67
2022/07/14 04:00:39;;;;;;;14.88;5.35;;;17.20;99.90;;;;;;5033848;28;20049;-67
2022/07/14 04:03:05;;;;;;;14.70;4.97;;;17.20;99.90;;;;;;5033862;28;20036;-66
2022/07/14 04:05:31;;;;;;;15.57;5.63;;;17.30;99.90;;;;;;5037902;28;20505;-67
2022/07/14 04:07:59;;;;;;;18.20;5.40;;;17.30;99.90;;;;;;5053644;28;20394;-67
2022/07/14 04:10:34;;;;;;;14.98;4.85;;;17.30;99.90;;;;;;5038620;28;20048;-64
2022/07/14 04:12:59;;;;;;;17.40;5.53;;;17.50;99.90;;;;;;5033729;28;20026;-68
2022/07/14 04:15:26;;;;;;;17.23;4.72;;;18.20;99.90;;;;;;5035370;28;20052;-65
2022/07/14 04:17:51;;;;;;;13.80;5.05;;;17.80;99.90;;;;;;5015977;28;20108;-66
2022/07/14 04:20:17;;;;;;;11.73;5.13;;;17.60;99.90;;;;;;5016187;28;20106;-65
2022/07/14 04:22:42;;;;;;;15.43;4.45;;;17.30;99.90;;;;;;5040309;28;20013;-66
2022/07/14 04:25:12;;;;;;;15.43;5.40;;;17.30;99.90;;;;;;5035643;28;20013;-66
2022/07/14 04:27:38;;;;;;;12.90;5.15;;;17.20;99.90;;;;;;5035830;28;20037;-66
2022/07/14 04:30:04;;;;;;;16.05;5.28;;;17.20;99.90;;;;;;5017404;28;20041;-66
2022/07/14 04:32:30;;;;;;;19.50;5.30;;;17.20;99.90;;;;;;5051649;28;20029;-66
2022/07/14 04:34:56;;;;;;;16.20;6.25;;;17.30;99.90;;;;;;5040608;28;20029;-66
2022/07/14 04:37:22;;;;;;;12.43;4.75;;;17.20;99.90;;;;;;5033487;28;20103;-67
2022/07/14 04:39:47;;;;;;;18.00;4.80;;;17.30;99.90;;;;;;5052597;28;20029;-69
2022/07/14 04:42:14;;;;;;;16.23;5.35;;;17.20;99.90;;;;;;5035208;28;20034;-66
2022/07/14 04:44:41;;;;;;;13.40;5.38;;;17.30;99.90;;;;;;5029485;28;20029;-66
2022/07/14 04:47:07;;;;;;;21.05;6.05;;;17.20;99.90;;;;;;5052291;28;20440;-66
2022/07/14 04:52:16;;;;;;;18.00;5.65;;;17.10;99.90;;;;;;5049386;28;20036;-64
2022/07/14 04:54:42;;;;;;;15.35;5.93;;;17.10;99.90;;;;;;5042794;28;20423;-64
2022/07/14 04:57:08;;;;;;;16.40;5.60;;;17.20;99.90;;;;;;5023076;28;20442;-67
2022/07/14 04:59:34;;;;;;;20.60;7.43;;;17.30;99.90;;;;;;5033038;28;20029;-64
2022/07/14 05:02:00;;;;;;;12.05;4.72;;;17.10;99.90;;;;;;5032872;28;20026;-64
2022/07/14 05:04:26;;;;;;;19.52;5.38;;;17.10;99.90;;;;;;5034051;28;20022;-65
2022/07/14 05:06:52;;;;;;;19.30;5.80;;;17.10;99.90;;;;;;5042119;28;20351;-65
2022/07/14 05:09:18;;;;;;;13.98;6.20;;;17.10;99.90;;;;;;5052807;28;20474;-67
2022/07/14 05:11:44;;;;;;;13.45;5.72;;;17.40;99.90;;;;;;5049028;28;20028;-65
2022/07/14 05:14:09;;;;;;;19.67;5.82;;;17.70;99.90;;;;;;5032467;28;20040;-69
2022/07/14 05:16:35;;;;;;;20.88;5.22;;;18.30;99.90;;;;;;5039874;28;20041;-65
2022/07/14 05:19:00;;;;;;;14.52;5.03;;;18.60;99.90;;;;;;5041748;28;20018;-65
2022/07/14 05:21:26;;;;;;;17.98;5.30;;;18.80;99.90;;;;;;5028555;28;20113;-65
2022/07/14 05:23:52;;;;;;;18.63;5.55;;;19.00;99.90;;;;;;5038869;28;20030;-65
2022/07/14 05:26:17;;;;;;;17.23;5.20;;;18.90;99.90;;;;;;5042832;28;20025;-65
2022/07/14 05:28:43;;;;;;;12.77;5.05;;;19.00;99.90;;;;;;5051697;28;20047;-65
2022/07/14 05:31:08;;;;;;;18.55;5.60;;;18.70;99.90;;;;;;5051555;28;20032;-66
2022/07/14 05:33:34;;;;;;;39.13;14.68;;;18.80;99.90;;;;;;5052010;28;20108;-65
2022/07/14 05:36:00;;;;;;;20.77;6.07;;;18.50;99.90;;;;;;5043835;28;20064;-65
2022/07/14 05:38:25;;;;;;;12.27;4.95;;;18.60;99.90;;;;;;5033902;28;20037;-65
2022/07/14 05:40:51;;;;;;;13.32;5.18;;;18.80;99.90;;;;;;5033560;28;20032;-65
2022/07/14 05:43:18;;;;;;;13.00;4.95;;;18.70;99.90;;;;;;5034391;28;20025;-65
2022/07/14 05:45:44;;;;;;;14.45;5.07;;;19.40;99.90;;;;;;5052389;28;20048;-65
2022/07/14 05:48:10;;;;;;;13.43;4.50;;;19.20;99.90;;;;;;5052491;28;20053;-65
2022/07/14 05:50:36;;;;;;;17.13;5.40;;;20.20;99.90;;;;;;5052401;28;20025;-66
2022/07/14 05:53:01;;;;;;;16.55;4.57;;;20.10;99.90;;;;;;5052324;28;20021;-65
2022/07/14 05:55:27;;;;;;;13.35;4.75;;;20.30;99.90;;;;;;5052433;28;20108;-65
2022/07/14 05:57:52;;;;;;;16.58;5.50;;;19.90;99.90;;;;;;5052256;28;20129;-66
2022/07/14 06:00:18;;;;;;;19.02;5.47;;;20.10;99.90;;;;;;5055056;28;20496;-65
2022/07/14 06:02:43;;;;;;;13.82;5.22;;;19.90;99.90;;;;;;5056137;28;20108;-66
2022/07/14 06:05:10;;;;;;;17.00;4.93;;;20.00;99.90;;;;;;5056161;28;20104;-65
2022/07/14 06:07:36;;;;;;;18.50;4.75;;;19.90;99.90;;;;;;5056371;28;20025;-66
2022/07/14 06:10:01;;;;;;;11.15;4.47;;;20.00;99.90;;;;;;5056077;28;20168;-65
2022/07/14 06:12:27;;;;;;;13.82;4.78;;;20.10;99.90;;;;;;5056129;28;20029;-66
2022/07/14 06:14:53;;;;;;;27.70;7.93;;;19.90;99.90;;;;;;5038320;28;20028;-66
2022/07/14 06:17:18;;;;;;;11.90;4.55;;;20.30;99.90;;;;;;5055807;28;20543;-66
2022/07/14 06:19:44;;;;;;;17.85;5.35;;;20.60;99.90;;;;;;5055809;28;20079;-66
2022/07/14 06:22:09;;;;;;;18.90;6.32;;;20.00;99.90;;;;;;5055805;28;20075;-66
2022/07/14 06:24:39;;;;;;;23.05;7.05;;;20.20;99.90;;;;;;5055879;28;20419;-66
2022/07/14 06:27:04;;;;;;;20.15;5.15;;;20.00;99.90;;;;;;5055708;28;20051;-66
2022/07/14 06:29:30;;;;;;;12.00;4.68;;;19.90;99.90;;;;;;5055544;28;20560;-66
2022/07/14 06:31:56;;;;;;;25.70;5.68;;;20.30;99.90;;;;;;5055602;28;20107;-66
2022/07/14 06:34:22;;;;;;;22.73;7.45;;;21.40;99.90;;;;;;5055746;28;20025;-66
2022/07/14 06:36:47;;;;;;;16.45;4.60;;;21.40;99.90;;;;;;5037585;28;20497;-65
2022/07/14 06:39:14;;;;;;;10.90;4.40;;;21.30;99.90;;;;;;5055491;28;20017;-66
2022/07/14 06:41:40;;;;;;;15.05;4.47;;;21.20;99.90;;;;;;5055443;28;20501;-68
2022/07/14 06:44:05;;;;;;;18.52;4.63;;;21.10;99.90;;;;;;5055340;28;20025;-68
2022/07/14 06:46:32;;;;;;;16.08;4.65;;;21.50;99.90;;;;;;5055200;28;20025;-71
2022/07/14 06:48:58;;;;;;;13.82;4.57;;;22.00;99.90;;;;;;5055288;28;20052;-73
2022/07/14 06:51:24;;;;;;;19.20;4.50;;;23.10;99.60;;;;;;5021033;28;20429;-68
2022/07/14 06:53:49;;;;;;;22.35;6.20;;;22.10;99.90;;;;;;5055172;28;20025;-69
2022/07/14 06:56:15;;;;;;;14.77;5.75;;;21.90;99.90;;;;;;5055271;28;20470;-69
2022/07/14 06:58:41;;;;;;;24.30;6.93;;;21.80;99.90;;;;;;5055067;28;20057;-69
2022/07/14 07:01:06;;;;;;;13.82;4.50;;;22.30;99.50;;;;;;5054880;28;20037;-71
2022/07/14 07:03:32;;;;;;;14.68;4.10;;;22.20;99.10;;;;;;5055056;28;20474;-70
2022/07/14 07:08:42;;;;;;;36.63;13.77;;;22.60;98.70;;;;;;5055116;28;20036;-69
2022/07/14 07:11:08;;;;;;;25.15;8.18;;;22.50;98.90;;;;;;5054545;28;20422;-69
2022/07/14 07:13:33;;;;;;;17.80;4.93;;;23.40;97.60;;;;;;5054938;28;20025;-70
2022/07/14 07:16:03;;;;;;;16.65;5.13;;;23.50;96.60;;;;;;5054614;28;20116;-70
2022/07/14 07:18:29;;;;;;;15.15;5.40;;;23.00;96.40;;;;;;5054723;28;20037;-71
2022/07/14 07:20:54;;;;;;;9.45;4.18;;;23.80;95.70;;;;;;5054722;28;20017;-70
2022/07/14 07:23:20;;;;;;;17.45;4.95;;;24.60;94.40;;;;;;5054762;28;20013;-70
2022/07/14 07:25:45;;;;;;;19.67;6.13;;;23.80;95.60;;;;;;5054558;28;20388;-69
2022/07/14 07:28:11;;;;;;;16.75;4.75;;;23.80;96.60;;;;;;5054379;28;20095;-70
2022/07/14 07:30:36;;;;;;;14.02;4.22;;;24.50;94.80;;;;;;5054541;28;20033;-73
2022/07/14 07:33:02;;;;;;;12.05;4.25;;;25.50;93.10;;;;;;5054420;28;20025;-70
2022/07/14 07:35:27;;;;;;;11.23;4.65;;;26.20;89.90;;;;;;5054549;28;20025;-70
2022/07/14 07:37:53;;;;;;;15.95;5.20;;;26.40;91.40;;;;;;5054252;28;20099;-69
2022/07/14 07:40:18;;;;;;;15.93;6.20;;;26.30;88.50;;;;;;5054238;28;20029;-70
2022/07/14 07:42:44;;;;;;;19.30;6.80;;;25.20;91.00;;;;;;5054353;28;20025;-70
2022/07/14 07:45:10;;;;;;;12.20;4.70;;;24.60;93.70;;;;;;5054144;28;20083;-73
2022/07/14 07:47:36;;;;;;;16.88;4.72;;;24.70;93.40;;;;;;5054264;28;20033;-72
2022/07/14 07:50:01;;;;;;;10.93;4.50;;;25.30;95.00;;;;;;5054059;28;20071;-71
2022/07/14 07:52:27;;;;;;;12.85;4.45;;;24.80;92.40;;;;;;5054077;28;20112;-71
2022/07/14 07:54:52;;;;;;;13.80;4.65;;;23.90;94.40;;;;;;5053982;28;20025;-72
2022/07/14 07:57:18;;;;;;;12.55;4.40;;;25.50;93.90;;;;;;5053931;28;20029;-72
2022/07/14 07:59:44;;;;;;;12.85;4.55;;;25.90;90.70;;;;;;5053964;28;20025;-72
2022/07/14 08:02:09;;;;;;;12.88;4.13;;;26.70;87.60;;;;;;5053843;28;20021;-73
2022/07/14 08:04:35;;;;;;;14.77;3.67;;;26.50;81.70;;;;;;5053977;28;20025;-73
2022/07/14 08:07:00;;;;;;;12.88;3.67;;;26.80;83.80;;;;;;5053776;28;20025;-74
2022/07/14 08:09:26;;;;;;;15.30;4.03;;;27.40;81.80;;;;;;5053902;28;20064;-73
2022/07/14 08:11:51;;;;;;;10.18;3.22;;;27.70;79.60;;;;;;5053718;28;20028;-73
2022/07/14 08:17:01;;;;;;;10.63;3.58;;;26.90;78.70;;;;;;5053589;28;20454;-73
2022/07/14 08:19:27;;;;;;;9.13;3.17;;;27.40;80.40;;;;;;5053636;28;20057;-72
2022/07/14 08:21:53;;;;;;;7.47;2.65;;;27.00;77.10;;;;;;5052791;28;20466;-72
2022/07/14 08:24:23;;;;;;;9.95;3.25;;;27.70;72.70;;;;;;5053482;28;20032;-73
2022/07/14 08:26:48;;;;;;;5.40;2.85;;;27.90;65.10;;;;;;5049418;28;20101;-73
2022/07/14 08:29:14;;;;;;;5.35;2.47;;;27.50;70.10;;;;;;5044177;28;20466;-74
2022/07/14 08:31:40;;;;;;;5.53;3.30;;;26.90;67.20;;;;;;5053320;28;20025;-71
2022/07/14 08:34:05;;;;;;;9.23;3.00;;;27.10;69.50;;;;;;5053279;28;20104;-73
2022/07/14 08:36:31;;;;;;;6.47;3.13;;;26.40;70.30;;;;;;5041396;28;20025;-74
2022/07/14 08:38:56;;;;;;;7.93;3.00;;;26.20;71.50;;;;;;5033297;28;20487;-73
2022/07/14 08:41:22;;;;;;;7.70;3.22;;;26.40;72.40;;;;;;5033451;28;20021;-73
2022/07/14 08:43:48;;;;;;;8.32;2.75;;;25.90;72.60;;;;;;5044799;28;20021;-72
2022/07/14 08:46:14;;;;;;;10.98;2.97;;;25.90;72.50;;;;;;5052997;28;20021;-71
2022/07/14 08:48:39;;;;;;;9.73;2.90;;;26.10;73.40;;;;;;5022654;28;20025;-73
2022/07/14 08:51:05;;;;;;;7.20;3.22;;;26.90;65.90;;;;;;5033094;28;20025;-73
2022/07/14 08:53:31;;;;;;;6.78;3.20;;;27.00;67.20;;;;;;5023303;28;20033;-73
2022/07/14 08:55:57;;;;;;;11.13;3.60;;;27.20;69.20;;;;;;5052943;28;20029;-73
2022/07/14 08:58:23;;;;;;;9.70;3.33;;;27.00;67.70;;;;;;5052922;28;20086;-74
2022/07/14 09:00:49;;;;;;;8.15;3.00;;;26.40;74.30;;;;;;5052910;28;20029;-73
2022/07/14 09:03:14;;;;;;;8.75;3.53;;;27.00;71.10;;;;;;5052884;28;20374;-72
2022/07/14 09:05:41;;;;;;;11.93;3.45;;;26.70;69.30;;;;;;5018616;28;20115;-73
2022/07/14 09:08:06;;;;;;;14.15;3.90;;;26.80;72.20;;;;;;5052731;28;20055;-74
2022/07/14 09:10:32;;;;;;;8.95;3.95;;;27.00;71.70;;;;;;5052912;28;20029;-75
2022/07/14 09:13:14;;;;;;;11.77;3.25;;;25.80;71.30;;;;;;5052144;28;20036;-73
2022/07/14 09:15:45;;;;;;;9.32;3.30;;;26.50;69.20;;;;;;5052061;28;20041;-73
2022/07/14 09:18:19;;;;;;;15.20;3.13;;;27.50;68.40;;;;;;5047312;28;20043;-71
2022/07/14 09:20:44;;;;;;;12.90;4.53;;;27.30;66.80;;;;;;5036486;28;20030;-70
2022/07/14 09:23:10;;;;;;;8.43;3.53;;;27.00;67.50;;;;;;5016801;28;20207;-71
2022/07/14 09:25:37;;;;;;;10.63;3.17;;;27.60;62.70;;;;;;5034304;28;20051;-71
2022/07/14 09:28:03;;;;;;;9.02;3.80;;;28.00;56.90;;;;;;5020661;28;20076;-71
2022/07/14 09:30:28;;;;;;;12.70;3.00;;;28.60;56.60;;;;;;5031796;28;20077;-70
2022/07/14 09:33:01;;;;;;;5.95;2.30;;;28.80;54.70;;;;;;5031972;28;20096;-69
2022/07/14 09:35:38;;;;;;;7.70;1.90;;;28.50;50.20;;;;;;5036029;28;20037;-70
2022/07/14 09:38:13;;;;;;;9.70;2.40;;;27.80;51.90;;;;;;5035762;28;20104;-69
2022/07/14 09:40:39;;;;;;;7.50;2.45;;;27.20;54.40;;;;;;5035812;28;20041;-70
2022/07/14 09:43:06;;;;;;;6.90;2.28;;;27.30;55.50;;;;;;5035654;28;20045;-70
2022/07/14 09:45:33;;;;;;;4.22;2.08;;;28.20;53.20;;;;;;5035723;28;20029;-70
2022/07/14 09:48:08;;;;;;;5.32;2.10;;;28.50;49.30;;;;;;5035526;28;20097;-69
2022/07/14 09:50:41;;;;;;;8.18;2.72;;;29.50;52.40;;;;;;5035512;28;20422;-70
2022/07/14 09:53:10;;;;;;;7.88;2.50;;;28.20;51.40;;;;;;5035463;28;20022;-70
2022/07/14 09:55:39;;;;;;;9.35;2.33;;;27.20;52.80;;;;;;5035409;28;20044;-70
2022/07/14 09:58:06;;;;;;;7.10;2.53;;;27.20;54.60;;;;;;5018265;28;20030;-70
2022/07/14 10:00:32;;;;;;;7.00;2.10;;;27.10;55.00;;;;;;5017800;28;20025;-70
2022/07/14 10:02:57;;;;;;;7.07;2.38;;;28.10;53.30;;;;;;5001229;28;20528;-70
2022/07/14 10:05:23;;;;;;;8.93;2.17;;;28.70;50.70;;;;;;5035652;28;20021;-70
2022/07/14 10:07:48;;;;;;;7.63;2.17;;;28.70;51.20;;;;;;5017656;28;20399;-70
2022/07/14 10:10:15;;;;;;;7.55;2.38;;;29.00;51.10;;;;;;5017416;28;20497;-70
2022/07/14 10:12:41;;;;;;;6.60;2.35;;;28.40;50.70;;;;;;5017834;28;20052;-69
2022/07/14 10:15:12;;;;;;;4.35;1.90;;;28.80;49.80;;;;;;5035052;28;20053;-69
2022/07/14 10:17:39;;;;;;;6.65;2.38;;;30.00;48.30;;;;;;5034918;28;20029;-70
2022/07/14 10:20:06;;;;;;;4.47;2.88;;;31.50;46.60;;;;;;5035036;28;20100;-70
2022/07/14 10:22:31;;;;;;;4.07;1.90;;;31.50;47.60;;;;;;5035187;28;20025;-70
2022/07/14 10:24:57;;;;;;;4.32;2.30;;;30.90;49.30;;;;;;5034775;28;20502;-70
2022/07/14 10:27:23;;;;;;;9.95;2.50;;;31.10;46.90;;;;;;5034983;28;20486;-70
2022/07/14 10:29:50;;;;;;;5.63;2.60;;;31.70;50.40;;;;;;5034705;28;20128;-70
2022/07/14 10:32:21;;;;;;;3.30;2.15;;;30.60;48.70;;;;;;5016996;28;20560;-70
2022/07/14 10:34:51;;;;;;;4.10;2.25;;;30.20;48.20;;;;;;5017183;28;20391;-70
2022/07/14 10:37:34;;;;;;;5.57;2.78;;;31.00;47.40;;;;;;5017290;28;20021;-70
2022/07/14 10:40:41;;;;;;;6.35;2.70;;;30.50;48.80;;;;;;5020589;28;20122;-74
2022/07/14 10:43:17;;;;;;;4.20;1.90;;;31.40;48.30;;;;;;5040961;28;20033;-74
2022/07/14 10:45:50;;;;;;;4.15;1.92;;;30.70;45.40;;;;;;5015811;28;20104;-74
2022/07/14 10:48:28;;;;;;;2.67;1.67;;;29.80;45.10;;;;;;5016950;28;20816;-74
2022/07/14 10:51:28;;;;;;;5.63;2.05;;;30.80;44.40;;;;;;5037845;28;20041;-71
2022/07/14 10:54:24;;;;;;;9.55;3.03;;;30.50;44.20;;;;;;5047675;28;20024;-76
2022/07/14 10:57:27;;;;;;;5.88;2.17;;;29.60;46.70;;;;;;5035869;28;20464;-74
2022/07/14 11:00:11;;;;;;;5.65;2.00;;;30.30;47.70;;;;;;5029702;28;20056;-76
2022/07/14 11:02:37;;;;;;;4.78;1.73;;;31.20;44.90;;;;;;5001821;28;20157;-72
2022/07/14 11:05:08;;;;;;;6.65;2.00;;;30.20;47.40;;;;;;5033636;28;20431;-74
2022/07/14 11:07:51;;;;;;;6.63;2.20;;;30.40;45.00;;;;;;5049125;28;20029;-73
2022/07/14 11:10:32;;;;;;;5.43;1.95;;;30.50;46.70;;;;;;5017286;28;20510;-75
2022/07/14 11:13:19;;;;;;;9.82;1.98;;;31.40;45.10;;;;;;5032309;28;20450;-74
2022/07/14 11:15:59;;;;;;;3.70;1.52;;;30.30;45.20;;;;;;5030808;28;20045;-72
2022/07/14 11:18:35;;;;;;;4.05;1.67;;;31.50;44.20;;;;;;5033475;28;20025;-73
2022/07/14 11:21:14;;;;;;;8.38;1.70;;;31.40;43.50;;;;;;5037710;28;20033;-70
2022/07/14 11:23:49;;;;;;;4.22;1.67;;;31.50;42.70;;;;;;5035431;28;20427;-70
2022/07/14 11:26:40;;;;;;;4.40;2.00;;;31.80;43.50;;;;;;5034113;28;20040;-70
2022/07/14 11:29:06;;;;;;;6.55;2.53;;;30.70;45.00;;;;;;5022550;28;20061;-69
2022/07/14 11:31:48;;;;;;;9.43;5.95;;;30.50;45.80;;;;;;5016655;28;20022;-70
2022/07/14 11:37:09;;;;;;;7.22;3.30;;;31.30;45.40;;;;;;5028513;28;20104;-69
2022/07/14 11:39:36;;;;;;;5.07;2.30;;;31.10;44.10;;;;;;5036287;28;20474;-71
2022/07/14 11:42:04;;;;;;;4.65;1.90;;;30.70;47.50;;;;;;5020388;28;20048;-70
2022/07/14 11:44:36;;;;;;;7.90;2.55;;;30.10;46.60;;;;;;5021100;28;20034;-70
2022/07/14 11:47:04;;;;;;;11.38;2.42;;;30.40;46.20;;;;;;5020267;28;20440;-70
2022/07/14 11:49:29;;;;;;;5.30;2.10;;;29.50;46.30;;;;;;5041663;28;20056;-70
2022/07/14 11:51:56;;;;;;;5.63;1.73;;;29.30;46.20;;;;;;5019325;28;20053;-71
2022/07/14 11:54:22;;;;;;;4.65;1.98;;;30.40;45.20;;;;;;5032879;28;20070;-71
2022/07/14 11:56:48;;;;;;;9.73;2.20;;;30.40;45.60;;;;;;5030770;28;20067;-70
2022/07/14 11:59:17;;;;;;;5.72;1.88;;;30.10;46.70;;;;;;5033389;28;20100;-70
2022/07/14 12:01:43;;;;;;;3.78;2.10;;;30.70;45.40;;;;;;5015889;28;20079;-68
2022/07/14 12:04:20;;;;;;;7.10;2.20;;;30.30;45.50;;;;;;5036633;28;20069;-72
2022/07/14 12:06:47;;;;;;;6.18;1.85;;;30.60;46.30;;;;;;5049459;28;20082;-80
2022/07/14 12:09:13;;;;;;;3.85;1.83;;;30.70;45.60;;;;;;5052843;28;20055;-75
2022/07/14 12:11:52;;;;;;;4.57;1.73;;;30.90;46.80;;;;;;5052870;28;20251;-74
2022/07/14 12:14:18;;;;;;;3.00;1.50;;;30.40;45.60;;;;;;5051888;28;20037;-70
2022/07/14 12:16:50;;;;;;;3.97;1.75;;;29.40;46.50;;;;;;5045145;28;20026;-70
2022/07/14 12:19:26;;;;;;;4.65;2.00;;;29.90;47.10;;;;;;5047000;28;20074;-71
2022/07/14 12:21:59;;;;;;;4.35;1.63;;;29.90;46.30;;;;;;5045558;28;20470;-70
2022/07/14 12:24:40;;;;;;;8.65;2.70;;;30.00;45.80;;;;;;5046759;28;20025;-74
2022/07/14 12:27:07;;;;;;;6.28;2.00;;;30.20;45.40;;;;;;5015175;28;20034;-76
2022/07/14 12:29:34;;;;;;;4.43;1.92;;;30.70;44.90;;;;;;5013516;28;20103;-75
2022/07/14 12:32:00;;;;;;;4.03;1.67;;;29.90;44.20;;;;;;5019249;28;20021;-74
2022/07/14 12:34:27;;;;;;;6.93;4.10;;;29.70;46.20;;;;;;5033578;28;20120;-74
2022/07/14 12:37:28;;;;;;;7.70;3.38;;;30.70;44.40;;;;;;5017664;28;20083;-74
2022/07/14 12:39:47;;;;;;;3.65;1.83;;;30.20;46.60;;;;;;5023171;28;20048;-74
2022/07/14 12:42:12;;;;;;;6.43;1.90;;;30.30;45.60;;;;;;5033876;28;20029;-76
2022/07/14 12:45:02;;;;;;;5.13;2.10;;;31.20;45.50;;;;;;5025120;28;20023;-75
2022/07/14 12:47:28;;;;;;;5.35;2.08;;;30.10;45.40;;;;;;5045810;28;20108;-73
2022/07/14 12:49:54;;;;;;;3.97;1.65;;;29.70;44.20;;;;;;5051619;28;20117;-74
2022/07/14 12:52:19;;;;;;;5.43;1.98;;;29.70;44.50;;;;;;5051381;28;20403;-76
2022/07/14 12:54:45;;;;;;;7.90;2.22;;;30.00;45.90;;;;;;5051708;28;20494;-75
2022/07/14 12:57:22;;;;;;;3.58;2.05;;;30.10;46.50;;;;;;5051535;28;20025;-74
2022/07/14 12:59:47;;;;;;;4.07;1.92;;;30.30;45.90;;;;;;5044116;28;20021;-72